Kantner, PA (15548)

10:14 AM EDT on May 28, 2015 (GMT -0400)
Stoystown | | Change Station
CLOSE
Current Station
Personal Weather Station
Location: Stoystown, PA
Elevation: 2172 ft
Nearby Weather Stations

Elev 2172 ft 40.11 °N, 78.94 °W | Updated 6 seconds ago

Mostly Cloudy
Mostly Cloudy
72.0 °F
Feels Like 76 °F
N
6.0
Wind Variable Wind from West
Gusts 9.8 mph

Today
High -- | Low -- °F
--% Chance of Precip.
Yesterday
High -- | Low -- °F
Precip. -- in
5:50 AM 8:35 PM
Waxing Gibbous, 76% visible
Pressure 30.23 in
Visibility 10.0 miles
Clouds Mostly Cloudy 1900 ft
Heat Index 76 °F
Dew Point 36 °F
Humidity 27%
Rainfall 0.00 in
Snow Depth Not available.
UV 3 out of 12
Pollen 9.10 out of 12
Air Quality Not available.
Flu Activity Sporadic
METAR KJST 281354Z AUTO VRB06KT 10SM BKN019 21/15 A3027 RMK AO2 SLP237 T02060150

More Conditions Fewer Conditions

Pressure 30.23 in
Visibility 10.0 miles
Clouds Mostly Cloudy 1900 ft
Heat Index 76 °F
Dew Point 36 °F
Humidity 27%
Rainfall 0.00 in
Snow Depth Not available.
UV 3 out of 12
Pollen 9.10 out of 12
Air Quality Not available.
Flu Activity Sporadic
METAR KJST 281354Z AUTO VRB06KT 10SM BKN019 21/15 A3027 RMK AO2 SLP237 T02060150

More Conditions Fewer Conditions

10-Day Weather Forecast

Almanac

Astronomy

May. 28, 2015 Rise Set
Actual Time
Civil Twilight
Nautical Twilight
Astronomical Twilight
Moon
Length of Visible Light
Length of Day
Tomorrow will be .
, % of the Moon is Illuminated

Today's Extremes

State Highs State Lows

Community

WunderPhotos

Upload Photos

1,824,982 photos uploaded!

WunderBlogs® & News

Nearby

Air Quality

  Air Quality AQ Index Pollutant
Not available.

Snow Depth

Station Depth Elevation

Earthquake Activity

City Distance Mag. Time & Date
Minimum magnitude displayed is 2.5.

Coastal Water Temperatures

Place Temperature

Stations

Nearby Weather Stations

Station Location Temp. Windchill Dew Point Humidity Wind Precip. Elev Updated Type